Main page
METAR-TAF:

METAR-TAF

Airports :

Newcastle Airport

Newcastle upon Tyne, England

latitude: 55-02N, longitude: 001-42W, elevation: 81 m

Current weather observation

The report was made 19 minutes ago, at 20:20 UTC
Wind 3 kt from variable directions
Temperature 14°C
Humidity 47%
Pressure 1028 hPa
Visibility 10 km or more
Few clouds at a height of 4500 ft

METAR: EGNT 222020Z VRB03KT 9999 FEW045 14/03 Q1028

Time: 21:39 (20:39 UTC)

Forecast

The report was made 3 hours and 41 minutes ago, at 16:58 UTC
Forecast valid from 22 at 18 UTC to 23 at 18 UTC
Wind 4 kt from variable directions
Visibility 10 km or more
Scattered clouds at a height of 3500 ft
Probability 40%
from 23 at 13 UTC to 23 at 18 UTC
Wind 10 kt from the East

TAF: EGNT 221658Z 2218/2318 VRB04KT 9999 SCT035 PROB40 2313/2318 08010KT

Weather observations and forecasts of more than 4000 airports (METAR and TAF reports).

The available stations are represented by yellow and red dots on the map.

Hover mouse over dot to see the name of the station.

Then click to see weather observations and forecasts.

To change the map : click on the green buttons with a black cross to zoom in, on the green button with a dash to zoom out, or on the green arrows for adjacent maps.


METAR-TAF: